createdAt,value
2023-04-17T00:02:01.869Z,8.70
2023-04-17T00:04:31.275Z,8.82
2023-04-17T00:06:59.618Z,8.46
2023-04-17T00:09:35.516Z,8.92
2023-04-17T00:12:02.696Z,8.71
2023-04-17T00:14:29.832Z,8.28
2023-04-17T00:16:57.158Z,7.94
2023-04-17T00:19:24.250Z,8.89
2023-04-17T00:21:51.885Z,8.59
2023-04-17T00:24:18.956Z,8.77
2023-04-17T00:26:46.035Z,8.85
2023-04-17T00:29:13.326Z,8.69
2023-04-17T00:31:40.560Z,7.83
2023-04-17T00:34:07.699Z,8.66
2023-04-17T00:36:34.881Z,8.86
2023-04-17T00:39:01.999Z,8.76
2023-04-17T00:41:29.146Z,8.74
2023-04-17T00:43:56.278Z,8.89
2023-04-17T00:46:23.449Z,8.41
2023-04-17T00:48:51.201Z,8.87
2023-04-17T00:51:18.396Z,8.84
2023-04-17T00:53:45.777Z,8.66
2023-04-17T00:56:12.967Z,8.46
2023-04-17T00:58:41.017Z,8.34
2023-04-17T01:01:08.166Z,8.16
2023-04-17T01:03:35.657Z,8.20
2023-04-17T01:06:03.905Z,8.13
2023-04-17T01:08:42.981Z,8.14
2023-04-17T01:11:10.917Z,8.17
2023-04-17T01:13:48.447Z,8.27
2023-04-17T01:16:15.967Z,8.61
2023-04-17T01:18:43.399Z,8.61
2023-04-17T01:21:10.682Z,8.79
2023-04-17T01:23:52.048Z,8.77
2023-04-17T01:26:23.940Z,8.62
2023-04-17T01:29:00.398Z,8.74
2023-04-17T01:31:29.209Z,8.36
2023-04-17T01:33:56.842Z,8.78
2023-04-17T01:36:23.933Z,8.19
2023-04-17T01:38:51.105Z,8.63
2023-04-17T01:41:18.304Z,8.42
2023-04-17T01:43:47.361Z,8.32
2023-04-17T01:46:14.690Z,7.88
2023-04-17T01:48:42.006Z,8.66
2023-04-17T01:51:09.126Z,7.92
2023-04-17T01:53:38.059Z,7.82
2023-04-17T01:56:05.461Z,7.82
2023-04-17T01:58:32.553Z,8.41
2023-04-17T02:01:00.258Z,8.60
2023-04-17T02:03:28.062Z,8.37
2023-04-17T02:05:55.882Z,8.18
2023-04-17T02:08:23.118Z,8.03
2023-04-17T02:10:52.698Z,8.45
2023-04-17T02:13:19.823Z,8.37
2023-04-17T02:15:46.948Z,8.40
2023-04-17T02:18:14.252Z,8.26
2023-04-17T02:20:41.401Z,8.56
2023-04-17T02:23:08.671Z,8.42
2023-04-17T02:25:36.346Z,8.21
2023-04-17T02:28:03.473Z,8.41
2023-04-17T02:30:30.871Z,8.13
2023-04-17T02:33:01.171Z,8.35
2023-04-17T02:35:31.503Z,8.40
2023-04-17T02:37:58.708Z,8.22
2023-04-17T02:40:25.910Z,8.65
2023-04-17T02:42:52.975Z,8.64
2023-04-17T02:45:20.226Z,8.44
2023-04-17T02:47:47.901Z,8.45
2023-04-17T02:50:15.020Z,8.62
2023-04-17T02:52:42.089Z,8.44
2023-04-17T02:55:09.990Z,8.61
2023-04-17T02:57:37.093Z,8.52
2023-04-17T03:00:14.987Z,8.41
2023-04-17T03:02:42.572Z,8.43
2023-04-17T03:05:11.767Z,8.00
2023-04-17T03:07:43.735Z,8.24
2023-04-17T03:10:11.056Z,8.69
2023-04-17T03:12:38.343Z,7.86
2023-04-17T03:15:08.699Z,8.51
2023-04-17T03:17:36.180Z,8.71
2023-04-17T03:20:04.337Z,7.95
2023-04-17T03:22:31.454Z,8.54
2023-04-17T03:24:58.528Z,8.46
2023-04-17T03:27:25.706Z,8.55
2023-04-17T03:29:56.921Z,8.56
2023-04-17T03:32:24.070Z,8.54
2023-04-17T03:34:54.174Z,8.68
2023-04-17T03:37:21.752Z,8.69
2023-04-17T03:39:48.903Z,8.42
2023-04-17T03:42:16.034Z,8.17
2023-04-17T03:44:43.170Z,8.66
2023-04-17T05:03:03.260Z,8.35
2023-04-17T05:05:31.156Z,8.08
2023-04-17T05:07:59.012Z,8.34
2023-04-17T05:10:26.144Z,8.41
2023-04-17T05:12:53.386Z,8.29
2023-04-17T05:15:20.559Z,7.65
2023-04-17T05:17:48.113Z,8.46
2023-04-17T05:20:15.419Z,8.46
2023-04-17T05:22:42.589Z,8.39
2023-04-17T05:25:09.873Z,7.89
2023-04-17T05:27:36.993Z,8.39
2023-04-17T05:30:05.237Z,8.42
2023-04-17T05:32:32.412Z,8.15
2023-04-17T05:35:00.301Z,8.56
2023-04-17T05:37:29.684Z,7.85
2023-04-17T05:39:56.956Z,8.31
2023-04-17T05:42:24.037Z,8.25
2023-04-17T05:44:51.237Z,8.41
2023-04-17T05:47:18.377Z,8.42
2023-04-17T05:49:45.868Z,8.46
2023-04-17T05:52:12.951Z,8.34
2023-04-17T05:54:40.034Z,8.31
2023-04-17T05:57:07.245Z,8.47
2023-04-17T05:59:34.327Z,8.45
2023-04-17T06:02:01.520Z,8.33
2023-04-17T06:04:32.430Z,8.41
2023-04-17T06:07:00.131Z,8.39
2023-04-17T06:09:30.597Z,7.83
2023-04-17T06:11:57.997Z,8.15
2023-04-17T06:14:25.110Z,8.35
2023-04-17T06:16:52.257Z,8.21
2023-04-17T06:19:19.388Z,8.41
2023-04-17T06:21:46.536Z,8.44
2023-04-17T06:24:13.614Z,8.43
2023-04-17T06:26:40.915Z,8.43
2023-04-17T06:29:09.099Z,8.03
2023-04-17T06:31:36.290Z,8.47
2023-04-17T06:34:03.478Z,8.34
2023-04-17T06:36:31.182Z,8.29
2023-04-17T06:38:58.461Z,8.36
2023-04-17T06:41:25.609Z,8.36
2023-04-17T06:43:52.708Z,8.03
2023-04-17T06:46:19.888Z,8.05
2023-04-17T06:48:47.391Z,8.55
2023-04-17T06:51:14.547Z,8.57
2023-04-17T06:53:41.717Z,8.21
2023-04-17T06:56:08.818Z,8.56
2023-04-17T06:58:42.549Z,8.02
2023-04-17T07:01:15.475Z,7.98
2023-04-17T07:03:43.661Z,8.30
2023-04-17T07:06:11.200Z,8.19
2023-04-17T07:08:38.391Z,8.34
2023-04-17T07:11:06.388Z,8.41
2023-04-17T07:13:33.707Z,8.51
2023-04-17T07:16:01.574Z,8.62
2023-04-17T07:18:32.004Z,8.61
2023-04-17T07:21:02.942Z,8.69
2023-04-17T07:23:30.427Z,8.15
2023-04-17T07:25:59.889Z,8.36
2023-04-17T07:28:26.985Z,8.54
2023-04-17T07:30:55.253Z,8.51
2023-04-17T07:33:22.410Z,8.25
2023-04-17T07:35:49.542Z,8.72
2023-04-17T07:38:16.878Z,8.35
2023-04-17T07:40:44.018Z,8.62
2023-04-17T07:43:11.084Z,8.59
2023-04-17T07:45:40.384Z,8.85
2023-04-17T07:48:09.199Z,8.80
2023-04-17T07:50:36.328Z,8.56
2023-04-17T07:53:03.461Z,8.89
2023-04-17T07:55:30.832Z,8.85
2023-04-17T07:57:59.327Z,8.87
2023-04-17T08:00:26.502Z,8.93
2023-04-17T08:02:53.860Z,8.63
2023-04-17T08:05:21.324Z,8.74
2023-04-17T08:07:48.501Z,8.69
2023-04-17T08:10:15.663Z,8.87
2023-04-17T08:12:42.918Z,9.03
2023-04-17T08:15:10.544Z,8.92
2023-04-17T08:17:37.693Z,9.15
2023-04-17T08:20:09.054Z,9.24
2023-04-17T08:22:40.910Z,9.11
2023-04-17T08:25:09.643Z,9.35
2023-04-17T08:27:37.737Z,9.41
2023-04-17T08:30:06.281Z,9.36
2023-04-17T08:32:42.782Z,9.34
2023-04-17T08:35:14.049Z,9.46
2023-04-17T08:37:44.560Z,9.58
2023-04-17T08:40:12.549Z,9.48
2023-04-17T08:42:43.644Z,9.48
2023-04-17T08:45:13.047Z,9.47
2023-04-17T08:47:42.701Z,9.19
2023-04-17T08:50:16.926Z,9.76
2023-04-17T08:52:46.645Z,9.38
2023-04-17T08:55:22.896Z,9.63
2023-04-17T08:58:04.533Z,9.95
2023-04-17T09:00:43.657Z,9.92
2023-04-17T09:03:13.124Z,9.85
2023-04-17T09:05:43.745Z,9.61
2023-04-17T09:08:26.373Z,10.02
2023-04-17T09:10:55.225Z,9.74
2023-04-17T09:13:25.614Z,10.11
2023-04-17T09:16:10.051Z,10.15
2023-04-17T09:18:39.119Z,10.11
2023-04-17T09:21:07.476Z,10.10
2023-04-17T09:23:56.370Z,10.06
2023-04-17T09:26:28.240Z,10.28
2023-04-17T09:29:12.196Z,10.46
2023-04-17T09:31:43.342Z,10.44
2023-04-17T09:34:13.421Z,10.52
2023-04-17T09:36:43.448Z,10.73
2023-04-17T09:39:24.412Z,10.81
2023-04-17T09:42:03.712Z,10.73
2023-04-17T09:44:31.358Z,10.89
2023-04-17T09:47:01.532Z,11.18
2023-04-17T09:49:42.421Z,11.19
2023-04-17T09:52:09.879Z,11.37
2023-04-17T09:54:40.162Z,11.58
2023-04-17T09:57:08.840Z,11.41
2023-04-17T09:59:48.198Z,11.67
2023-04-17T10:02:21.770Z,11.95
2023-04-17T10:04:49.076Z,12.12
2023-04-17T10:07:17.341Z,12.09
2023-04-17T10:09:47.612Z,12.14
2023-04-17T10:12:17.304Z,12.16
2023-04-17T10:14:48.985Z,12.59
2023-04-17T10:17:34.793Z,12.56
2023-04-17T10:20:23.362Z,12.64
2023-04-17T10:22:56.508Z,12.57
2023-04-17T10:25:31.449Z,12.38
2023-04-17T10:28:00.670Z,12.40
2023-04-17T10:31:01.465Z,12.71
2023-04-17T10:33:29.652Z,12.96
2023-04-17T10:35:56.834Z,13.01
2023-04-17T10:38:35.593Z,12.93
2023-04-17T10:41:09.603Z,12.69
2023-04-17T10:43:41.839Z,13.19
2023-04-17T10:46:13.714Z,13.09
2023-04-17T10:48:52.945Z,13.44
2023-04-17T10:51:23.216Z,13.51
2023-04-17T10:54:00.425Z,13.49
2023-04-17T10:56:41.769Z,12.94
2023-04-17T10:59:14.390Z,13.34
2023-04-17T11:02:04.882Z,13.58
2023-04-17T11:04:34.096Z,13.98
2023-04-17T11:07:02.123Z,13.80
2023-04-17T11:09:32.327Z,13.88
2023-04-17T11:12:03.083Z,14.15
2023-04-17T11:14:32.525Z,14.10
2023-04-17T11:17:00.637Z,13.70
2023-04-17T11:19:28.362Z,14.04
2023-04-17T11:22:01.609Z,14.05
2023-04-17T11:24:31.008Z,13.66
2023-04-17T11:27:02.280Z,14.28
2023-04-17T11:29:30.199Z,14.23
2023-04-17T11:31:59.829Z,13.94
2023-04-17T11:34:27.904Z,13.90
2023-04-17T11:36:58.165Z,13.86
2023-04-17T11:39:29.573Z,14.16
2023-04-17T11:42:00.173Z,14.15
2023-04-17T11:44:29.441Z,14.36
2023-04-17T11:47:00.930Z,14.52
2023-04-17T11:49:33.636Z,14.16
2023-04-17T11:52:02.131Z,14.64
2023-04-17T11:54:31.855Z,14.39
2023-04-17T11:57:01.868Z,14.45
2023-04-17T11:59:38.018Z,14.40
2023-04-17T12:02:09.292Z,14.75
2023-04-17T12:04:42.002Z,15.03
2023-04-17T12:07:09.314Z,14.81
2023-04-17T12:09:36.794Z,14.73
2023-04-17T12:12:08.219Z,15.03
2023-04-17T12:14:35.747Z,15.43
2023-04-17T12:17:02.846Z,15.53
2023-04-17T12:19:32.148Z,15.35
2023-04-17T12:21:59.838Z,15.52
2023-04-17T12:24:29.741Z,15.39
2023-04-17T12:26:59.246Z,15.48
2023-04-17T12:29:40.581Z,15.71
2023-04-17T12:32:10.974Z,15.50
2023-04-17T12:34:38.220Z,15.53
2023-04-17T12:37:05.741Z,15.65
2023-04-17T12:39:33.528Z,15.34
2023-04-17T12:42:00.818Z,14.78
2023-04-17T12:44:28.245Z,15.73
2023-04-17T12:46:55.480Z,15.90
2023-04-17T12:49:23.957Z,15.98
2023-04-17T12:51:51.700Z,15.94
2023-04-17T12:54:19.130Z,16.17
2023-04-17T12:56:46.225Z,16.04
2023-04-17T12:59:13.366Z,15.77
2023-04-17T13:01:40.875Z,15.96
2023-04-17T13:04:08.355Z,16.14
2023-04-17T13:06:35.785Z,16.42
2023-04-17T13:09:02.912Z,16.21
2023-04-17T13:11:30.270Z,16.21
2023-04-17T13:13:58.221Z,16.46
2023-04-17T13:16:25.657Z,16.51
2023-04-17T13:18:52.776Z,16.39
2023-04-17T13:21:19.884Z,16.48
2023-04-17T13:23:46.975Z,16.45
2023-04-17T13:26:14.092Z,16.43
2023-04-17T13:28:41.177Z,16.76
2023-04-17T13:31:08.749Z,16.75
2023-04-17T13:33:35.919Z,16.42
2023-04-17T13:36:03.107Z,16.54
2023-04-17T13:38:30.612Z,16.15
2023-04-17T13:40:58.000Z,16.16
2023-04-17T13:43:25.207Z,16.11
2023-04-17T13:45:55.346Z,16.21
2023-04-17T13:48:22.655Z,16.24
2023-04-17T13:50:49.727Z,16.03
2023-04-17T13:53:17.225Z,16.32
2023-04-17T13:55:44.312Z,16.31
2023-04-17T13:58:11.455Z,16.65
2023-04-17T14:00:38.675Z,16.40
2023-04-17T14:03:05.938Z,16.63
2023-04-17T14:05:33.131Z,16.41
2023-04-17T14:08:00.395Z,16.00
2023-04-17T14:10:30.828Z,15.72
2023-04-17T14:12:58.050Z,15.74
2023-04-17T14:15:25.221Z,15.82
2023-04-17T14:17:52.382Z,16.21
2023-04-17T14:20:20.257Z,16.03
2023-04-17T14:22:47.480Z,15.82
2023-04-17T14:25:15.280Z,16.26
2023-04-17T14:27:42.540Z,16.15
2023-04-17T14:30:10.035Z,16.08
2023-04-17T14:32:38.749Z,16.22
2023-04-17T14:35:06.842Z,16.02
2023-04-17T14:37:34.183Z,16.24
2023-04-17T14:40:01.759Z,16.39
2023-04-17T14:42:29.648Z,16.91
2023-04-17T14:44:56.738Z,16.91
2023-04-17T14:47:23.950Z,16.15
2023-04-17T14:49:51.230Z,16.25
2023-04-17T14:52:18.328Z,16.28
2023-04-17T14:54:45.426Z,16.31
2023-04-17T14:57:12.651Z,16.48
2023-04-17T14:59:40.556Z,16.60
2023-04-17T15:02:08.139Z,16.63
2023-04-17T15:04:35.530Z,16.59
2023-04-17T15:07:03.379Z,16.84
2023-04-17T15:09:30.632Z,16.82
2023-04-17T15:11:58.057Z,16.59
2023-04-17T15:14:26.019Z,16.45
2023-04-17T15:16:54.494Z,16.54
2023-04-17T15:19:21.733Z,16.37
2023-04-17T15:21:48.809Z,16.69
2023-04-17T15:24:15.952Z,16.72
2023-04-17T15:26:44.997Z,16.87
2023-04-17T15:29:12.553Z,16.76
2023-04-17T15:31:40.518Z,16.20
2023-04-17T15:34:07.783Z,16.84
2023-04-17T15:36:34.888Z,16.36
2023-04-17T15:39:01.996Z,16.61
2023-04-17T15:41:32.300Z,16.67
2023-04-17T15:44:00.059Z,16.94
2023-04-17T15:46:31.538Z,16.58
2023-04-17T15:49:08.726Z,16.93
2023-04-17T15:51:36.420Z,16.86
2023-04-17T15:54:03.539Z,16.62
2023-04-17T15:56:30.699Z,16.65
2023-04-17T15:58:57.956Z,16.62
2023-04-17T16:01:25.325Z,16.33
2023-04-17T16:03:53.180Z,16.48
2023-04-17T16:06:20.718Z,16.45
2023-04-17T16:08:48.022Z,16.58
2023-04-17T16:11:15.171Z,16.44
2023-04-17T16:13:42.390Z,16.59
2023-04-17T16:16:09.481Z,16.58
2023-04-17T16:18:36.666Z,16.32
2023-04-17T16:21:03.872Z,16.32
2023-04-17T16:23:31.070Z,16.35
2023-04-17T16:25:58.339Z,16.41
2023-04-17T16:28:25.595Z,16.32
2023-04-17T16:30:52.710Z,16.40
2023-04-17T16:33:19.788Z,16.46
2023-04-17T16:35:46.940Z,16.16
2023-04-17T16:38:14.043Z,16.28
2023-04-17T16:40:41.138Z,16.02
2023-04-17T16:43:09.181Z,16.34
2023-04-17T16:45:39.465Z,16.16
2023-04-17T16:48:09.227Z,16.21
2023-04-17T16:50:36.501Z,16.26
2023-04-17T16:53:03.852Z,16.19
2023-04-17T16:55:31.300Z,15.95
2023-04-17T16:58:00.599Z,15.91
2023-04-17T17:00:27.933Z,15.87
2023-04-17T17:02:55.234Z,15.98
2023-04-17T17:05:22.625Z,15.70
2023-04-17T17:07:49.846Z,15.92
2023-04-17T17:10:16.975Z,15.91
2023-04-17T17:12:44.091Z,15.75
2023-04-17T17:15:11.651Z,15.61
2023-04-17T17:17:38.902Z,15.86
2023-04-17T17:20:07.245Z,15.67
2023-04-17T17:22:34.346Z,15.54
2023-04-17T17:25:01.427Z,15.32
2023-04-17T17:27:31.153Z,15.52
2023-04-17T17:30:00.471Z,15.35
2023-04-17T17:32:28.067Z,15.30
2023-04-17T17:34:55.227Z,15.34
2023-04-17T17:37:22.375Z,15.33
2023-04-17T17:39:49.475Z,15.35
2023-04-17T17:42:16.551Z,15.35
2023-04-17T17:44:43.644Z,15.12
2023-04-17T17:47:10.787Z,15.00
2023-04-17T17:49:37.904Z,14.99
2023-04-17T17:52:05.221Z,15.11
2023-04-17T17:54:39.414Z,14.73
2023-04-17T17:57:06.895Z,14.51
2023-04-17T17:59:34.086Z,14.61
2023-04-17T18:02:02.381Z,14.61
2023-04-17T18:04:30.292Z,14.99
2023-04-17T18:06:57.791Z,14.51
2023-04-17T18:09:24.928Z,14.63
2023-04-17T18:11:52.051Z,14.83
2023-04-17T18:14:19.145Z,14.53
2023-04-17T18:16:46.203Z,14.60
2023-04-17T18:19:13.343Z,14.24
2023-04-17T18:21:40.618Z,13.96
2023-04-17T18:24:08.109Z,14.16
2023-04-17T18:26:35.203Z,13.87
2023-04-17T18:29:02.392Z,13.97
2023-04-17T18:31:30.261Z,14.17
2023-04-17T18:34:02.372Z,13.91
2023-04-17T18:36:30.976Z,13.98
2023-04-17T18:38:58.177Z,13.93
2023-04-17T18:41:26.933Z,13.75
2023-04-17T18:43:54.124Z,13.55
2023-04-17T18:46:22.161Z,13.77
2023-04-17T18:48:49.293Z,13.59
2023-04-17T18:51:17.665Z,13.32
2023-04-17T18:53:44.895Z,13.45
2023-04-17T18:56:13.907Z,13.65
2023-04-17T18:58:41.005Z,13.42
2023-04-17T19:01:10.551Z,13.34
2023-04-17T19:03:38.916Z,13.44
2023-04-17T19:06:06.899Z,13.29
2023-04-17T19:08:34.905Z,13.22
2023-04-17T19:11:02.708Z,12.97
2023-04-17T19:13:30.049Z,13.08
2023-04-17T19:15:58.122Z,13.06
2023-04-17T19:18:25.306Z,12.58
2023-04-17T19:20:52.376Z,12.97
2023-04-17T19:23:19.488Z,12.95
2023-04-17T19:25:54.335Z,12.63
2023-04-17T19:28:22.796Z,12.54
2023-04-17T19:30:49.921Z,12.56
2023-04-17T19:33:17.078Z,12.58
2023-04-17T19:35:44.277Z,12.61
2023-04-17T19:38:11.606Z,12.48
2023-04-17T19:40:38.729Z,12.41
2023-04-17T19:43:05.797Z,12.20
2023-04-17T19:45:34.314Z,12.10
2023-04-17T19:48:01.600Z,12.28
2023-04-17T19:50:30.236Z,12.32
2023-04-17T19:52:59.106Z,12.21
2023-04-17T19:55:26.518Z,12.16
2023-04-17T19:57:56.221Z,11.92
2023-04-17T20:00:23.471Z,12.02
2023-04-17T20:02:50.766Z,11.77
2023-04-17T20:05:18.615Z,11.97
2023-04-17T20:07:45.721Z,11.71
2023-04-17T20:10:13.241Z,11.81
2023-04-17T20:12:40.442Z,11.47
2023-04-17T20:15:08.366Z,11.57
2023-04-17T20:17:35.588Z,11.92
2023-04-17T20:20:02.788Z,11.37
2023-04-17T20:22:30.043Z,11.86
2023-04-17T20:24:57.486Z,11.52
2023-04-17T20:27:24.646Z,11.75
2023-04-17T20:29:51.794Z,11.45
2023-04-17T20:32:20.475Z,11.19
2023-04-17T20:34:47.687Z,11.31
2023-04-17T20:37:14.819Z,11.30
2023-04-17T20:39:41.956Z,11.37
2023-04-17T20:42:09.076Z,11.05
2023-04-17T20:44:36.171Z,11.11
2023-04-17T20:47:04.041Z,11.35
2023-04-17T20:49:32.710Z,11.07
2023-04-17T20:52:02.264Z,10.76
2023-04-17T20:54:29.901Z,11.06
2023-04-17T20:56:57.849Z,10.79
2023-04-17T20:59:25.060Z,10.78
2023-04-17T21:01:52.655Z,11.02
2023-04-17T21:04:20.249Z,10.86
2023-04-17T21:06:47.385Z,10.54
2023-04-17T21:09:16.604Z,10.83
2023-04-17T21:11:43.710Z,10.70
2023-04-17T21:14:14.109Z,10.75
2023-04-17T21:16:44.518Z,10.80
2023-04-17T21:19:12.244Z,10.32
2023-04-17T21:21:39.360Z,10.70
2023-04-17T21:24:06.616Z,10.82
2023-04-17T21:26:33.699Z,10.84
2023-04-17T21:29:00.806Z,10.70
2023-04-17T21:31:28.073Z,10.56
2023-04-17T21:33:55.260Z,10.62
2023-04-17T21:36:22.708Z,10.52
2023-04-17T21:38:49.860Z,10.46
2023-04-17T21:41:17.019Z,10.29
2023-04-17T21:43:44.107Z,10.33
2023-04-17T21:46:11.906Z,10.51
2023-04-17T21:48:40.119Z,10.16
2023-04-17T21:51:07.267Z,10.49
2023-04-17T21:53:36.410Z,10.46
2023-04-17T21:56:05.046Z,10.21
2023-04-17T21:58:33.978Z,10.10
2023-04-17T22:01:01.334Z,10.17
2023-04-17T22:03:29.100Z,10.31
2023-04-17T22:05:58.374Z,10.22
2023-04-17T22:08:25.637Z,10.05
2023-04-17T22:10:53.062Z,10.21
2023-04-17T22:13:20.237Z,10.30
2023-04-17T22:15:49.469Z,10.08
2023-04-17T22:18:16.694Z,10.06
2023-04-17T22:20:43.817Z,10.17
2023-04-17T22:23:10.944Z,10.16
2023-04-17T22:25:38.045Z,10.37
2023-04-17T22:28:05.369Z,10.06
2023-04-17T22:30:32.478Z,10.23
2023-04-17T22:33:00.200Z,10.37
2023-04-17T22:35:27.868Z,10.01
2023-04-17T22:37:54.974Z,10.23
2023-04-17T22:40:22.138Z,9.98
2023-04-17T22:42:51.454Z,10.32
2023-04-17T22:45:18.724Z,10.30
2023-04-17T22:47:45.926Z,10.14
2023-04-17T22:50:18.057Z,9.53
2023-04-17T22:52:45.196Z,9.44
2023-04-17T22:55:12.360Z,9.94
2023-04-17T22:57:39.640Z,10.17
2023-04-17T23:00:11.033Z,9.99
2023-04-17T23:02:38.278Z,9.72
2023-04-17T23:05:06.824Z,9.53
2023-04-17T23:07:33.960Z,9.46
2023-04-17T23:10:20.802Z,9.85
2023-04-17T23:12:47.916Z,9.96
2023-04-17T23:15:15.057Z,8.94
2023-04-17T23:17:42.221Z,9.01
2023-04-17T23:20:09.807Z,9.78
2023-04-17T23:22:37.087Z,9.50
2023-04-17T23:25:04.584Z,9.62
2023-04-17T23:27:32.300Z,9.41
2023-04-17T23:30:02.612Z,9.35
2023-04-17T23:32:30.402Z,9.67
2023-04-17T23:34:59.776Z,9.43
2023-04-17T23:37:27.057Z,9.34
2023-04-17T23:39:54.444Z,9.14
2023-04-17T23:42:21.531Z,9.13
2023-04-17T23:44:48.638Z,9.20
2023-04-17T23:47:16.160Z,9.41
2023-04-17T23:49:43.261Z,9.00
2023-04-17T23:52:10.400Z,9.23
2023-04-17T23:54:37.498Z,9.13
2023-04-17T23:57:04.916Z,9.24
2023-04-17T23:59:32.054Z,8.85
